sensor_id;sensor_type;location;lat;lon;timestamp;pressure;altitude;pressure_sealevel;temperature;humidity
70954;BME280;58618;47.490;8.736;2022-08-02T00:02:28;96831.59;;;17.81;100.00
70954;BME280;58618;47.490;8.736;2022-08-02T00:05:16;96832.34;;;17.82;100.00
70954;BME280;58618;47.490;8.736;2022-08-02T00:08:04;96833.44;;;17.81;100.00
70954;BME280;58618;47.490;8.736;2022-08-02T00:10:51;96830.66;;;17.77;100.00
70954;BME280;58618;47.490;8.736;2022-08-02T00:13:38;96829.16;;;17.76;100.00
70954;BME280;58618;47.490;8.736;2022-08-02T00:16:26;96829.75;;;17.73;100.00
70954;BME280;58618;47.490;8.736;2022-08-02T00:19:13;96825.94;;;17.70;100.00
70954;BME280;58618;47.490;8.736;2022-08-02T00:22:02;96823.63;;;17.69;100.00
70954;BME280;58618;47.490;8.736;2022-08-02T00:24:49;96821.19;;;17.64;100.00
70954;BME280;58618;47.490;8.736;2022-08-02T00:27:37;96815.03;;;17.60;100.00
70954;BME280;58618;47.490;8.736;2022-08-02T00:30:24;96814.53;;;17.58;100.00
70954;BME280;58618;47.490;8.736;2022-08-02T00:33:12;96809.97;;;17.55;100.00
70954;BME280;58618;47.490;8.736;2022-08-02T00:35:59;96813.47;;;17.50;100.00
70954;BME280;58618;47.490;8.736;2022-08-02T00:38:48;96813.63;;;17.54;100.00
70954;BME280;58618;47.490;8.736;2022-08-02T00:41:44;96813.34;;;17.55;100.00
70954;BME280;58618;47.490;8.736;2022-08-02T00:44:32;96807.78;;;17.57;100.00
70954;BME280;58618;47.490;8.736;2022-08-02T00:47:19;96802.00;;;17.60;100.00
70954;BME280;58618;47.490;8.736;2022-08-02T00:50:07;96804.72;;;17.72;100.00
70954;BME280;58618;47.490;8.736;2022-08-02T00:52:54;96803.03;;;17.59;100.00
70954;BME280;58618;47.490;8.736;2022-08-02T00:55:43;96804.63;;;17.60;100.00
70954;BME280;58618;47.490;8.736;2022-08-02T00:58:31;96798.63;;;17.59;100.00
70954;BME280;58618;47.490;8.736;2022-08-02T01:01:18;96784.19;;;17.45;100.00
70954;BME280;58618;47.490;8.736;2022-08-02T01:04:06;96791.09;;;17.41;100.00
70954;BME280;58618;47.490;8.736;2022-08-02T01:06:54;96773.00;;;17.36;100.00
70954;BME280;58618;47.490;8.736;2022-08-02T01:09:42;96781.44;;;17.33;100.00
70954;BME280;58618;47.490;8.736;2022-08-02T01:12:31;96768.25;;;17.29;100.00
70954;BME280;58618;47.490;8.736;2022-08-02T01:15:19;96776.97;;;17.24;100.00
70954;BME280;58618;47.490;8.736;2022-08-02T01:18:11;96768.41;;;17.15;100.00
70954;BME280;58618;47.490;8.736;2022-08-02T01:21:21;96774.25;;;17.12;100.00
70954;BME280;58618;47.490;8.736;2022-08-02T01:24:36;96774.84;;;17.09;100.00
70954;BME280;58618;47.490;8.736;2022-08-02T01:27:39;96783.88;;;17.03;100.00
70954;BME280;58618;47.490;8.736;2022-08-02T01:30:31;96789.56;;;17.05;100.00
70954;BME280;58618;47.490;8.736;2022-08-02T01:33:22;96787.13;;;17.00;100.00
70954;BME280;58618;47.490;8.736;2022-08-02T01:36:13;96783.41;;;16.93;100.00
70954;BME280;58618;47.490;8.736;2022-08-02T01:39:01;96794.75;;;16.88;100.00
70954;BME280;58618;47.490;8.736;2022-08-02T01:41:51;96789.56;;;16.88;100.00
70954;BME280;58618;47.490;8.736;2022-08-02T01:44:41;96787.88;;;16.83;100.00
70954;BME280;58618;47.490;8.736;2022-08-02T01:47:33;96786.94;;;16.79;100.00
70954;BME280;58618;47.490;8.736;2022-08-02T01:50:25;96778.84;;;16.81;100.00
70954;BME280;58618;47.490;8.736;2022-08-02T01:53:14;96786.03;;;16.75;100.00
70954;BME280;58618;47.490;8.736;2022-08-02T01:56:04;96779.09;;;16.71;100.00
70954;BME280;58618;47.490;8.736;2022-08-02T01:58:54;96786.47;;;16.69;100.00
70954;BME280;58618;47.490;8.736;2022-08-02T02:01:41;96781.84;;;16.66;100.00
70954;BME280;58618;47.490;8.736;2022-08-02T02:04:31;96783.53;;;16.62;100.00
70954;BME280;58618;47.490;8.736;2022-08-02T02:07:20;96776.59;;;16.48;100.00
70954;BME280;58618;47.490;8.736;2022-08-02T02:10:11;96785.81;;;16.55;100.00
70954;BME280;58618;47.490;8.736;2022-08-02T02:13:02;96775.53;;;16.50;100.00
70954;BME280;58618;47.490;8.736;2022-08-02T02:15:51;96793.13;;;16.53;100.00
70954;BME280;58618;47.490;8.736;2022-08-02T02:18:40;96780.25;;;16.47;100.00
70954;BME280;58618;47.490;8.736;2022-08-02T02:21:30;96780.25;;;16.47;100.00
70954;BME280;58618;47.490;8.736;2022-08-02T02:24:17;96788.22;;;16.42;100.00
70954;BME280;58618;47.490;8.736;2022-08-02T02:27:05;96776.88;;;16.38;100.00
70954;BME280;58618;47.490;8.736;2022-08-02T02:29:55;96775.47;;;16.32;100.00
70954;BME280;58618;47.490;8.736;2022-08-02T02:32:43;96769.78;;;16.30;100.00
70954;BME280;58618;47.490;8.736;2022-08-02T02:35:34;96763.00;;;16.12;100.00
70954;BME280;58618;47.490;8.736;2022-08-02T02:38:26;96767.75;;;16.10;100.00
70954;BME280;58618;47.490;8.736;2022-08-02T02:41:15;96778.94;;;16.19;100.00
70954;BME280;58618;47.490;8.736;2022-08-02T02:44:06;96775.91;;;16.26;100.00
70954;BME280;58618;47.490;8.736;2022-08-02T02:46:55;96774.50;;;16.20;100.00
70954;BME280;58618;47.490;8.736;2022-08-02T02:49:45;96770.69;;;16.17;100.00
70954;BME280;58618;47.490;8.736;2022-08-02T02:52:33;96762.41;;;16.15;100.00
70954;BME280;58618;47.490;8.736;2022-08-02T02:55:24;96752.00;;;16.15;100.00
70954;BME280;58618;47.490;8.736;2022-08-02T02:58:13;96751.06;;;16.11;100.00
70954;BME280;58618;47.490;8.736;2022-08-02T03:01:00;96759.31;;;16.13;100.00
70954;BME280;58618;47.490;8.736;2022-08-02T03:04:08;96749.66;;;16.05;100.00
70954;BME280;58618;47.490;8.736;2022-08-02T03:06:55;96757.47;;;16.05;100.00
70954;BME280;58618;47.490;8.736;2022-08-02T03:09:43;96762.09;;;16.17;100.00
70954;BME280;58618;47.490;8.736;2022-08-02T03:12:32;96755.66;;;16.14;100.00
70954;BME280;58618;47.490;8.736;2022-08-02T03:15:20;96754.44;;;16.20;100.00
70954;BME280;58618;47.490;8.736;2022-08-02T03:18:08;96758.94;;;16.28;100.00
70954;BME280;58618;47.490;8.736;2022-08-02T03:20:58;96749.25;;;16.20;100.00
70954;BME280;58618;47.490;8.736;2022-08-02T03:23:45;96754.19;;;16.30;100.00
70954;BME280;58618;47.490;8.736;2022-08-02T03:26:32;96756.91;;;16.25;100.00
70954;BME280;58618;47.490;8.736;2022-08-02T03:29:21;96748.31;;;16.16;100.00
70954;BME280;58618;47.490;8.736;2022-08-02T03:32:09;96748.91;;;16.13;100.00
70954;BME280;58618;47.490;8.736;2022-08-02T03:34:57;96738.19;;;16.06;100.00
70954;BME280;58618;47.490;8.736;2022-08-02T03:37:44;96742.78;;;16.09;100.00
70954;BME280;58618;47.490;8.736;2022-08-02T03:40:33;96745.84;;;16.11;100.00
70954;BME280;58618;47.490;8.736;2022-08-02T03:43:23;96742.69;;;16.23;100.00
70954;BME280;58618;47.490;8.736;2022-08-02T03:46:14;96730.50;;;16.01;100.00
70954;BME280;58618;47.490;8.736;2022-08-02T03:49:03;96737.25;;;16.02;100.00
70954;BME280;58618;47.490;8.736;2022-08-02T03:51:51;96738.34;;;16.10;100.00
70954;BME280;58618;47.490;8.736;2022-08-02T03:54:39;96734.19;;;16.00;100.00
70954;BME280;58618;47.490;8.736;2022-08-02T03:57:26;96733.56;;;16.03;100.00
70954;BME280;58618;47.490;8.736;2022-08-02T04:00:17;96740.31;;;16.13;100.00
70954;BME280;58618;47.490;8.736;2022-08-02T04:03:06;96733.78;;;16.15;100.00
70954;BME280;58618;47.490;8.736;2022-08-02T04:05:54;96737.00;;;16.29;100.00
70954;BME280;58618;47.490;8.736;2022-08-02T04:08:41;96735.06;;;16.43;100.00
70954;BME280;58618;47.490;8.736;2022-08-02T04:11:29;96744.28;;;16.58;100.00
70954;BME280;58618;47.490;8.736;2022-08-02T04:14:19;96752.41;;;16.57;100.00
70954;BME280;58618;47.490;8.736;2022-08-02T04:17:08;96751.63;;;16.56;100.00
70954;BME280;58618;47.490;8.736;2022-08-02T04:20:02;96757.97;;;16.64;100.00
70954;BME280;58618;47.490;8.736;2022-08-02T04:22:55;96758.88;;;16.68;100.00
70954;BME280;58618;47.490;8.736;2022-08-02T04:25:44;96756.69;;;16.53;100.00
70954;BME280;58618;47.490;8.736;2022-08-02T04:28:33;96766.81;;;16.54;100.00
70954;BME280;58618;47.490;8.736;2022-08-02T04:31:22;96768.97;;;16.61;100.00
70954;BME280;58618;47.490;8.736;2022-08-02T04:34:09;96768.53;;;16.67;100.00
70954;BME280;58618;47.490;8.736;2022-08-02T04:36:59;96765.00;;;16.72;100.00
70954;BME280;58618;47.490;8.736;2022-08-02T04:39:46;96775.91;;;16.65;100.00
70954;BME280;58618;47.490;8.736;2022-08-02T04:42:33;96775.13;;;16.65;100.00
70954;BME280;58618;47.490;8.736;2022-08-02T04:45:21;96787.81;;;16.66;100.00
70954;BME280;58618;47.490;8.736;2022-08-02T04:48:09;96784.00;;;16.64;100.00
70954;BME280;58618;47.490;8.736;2022-08-02T04:50:56;96784.19;;;16.84;100.00
70954;BME280;58618;47.490;8.736;2022-08-02T04:53:45;96786.19;;;16.79;100.00
70954;BME280;58618;47.490;8.736;2022-08-02T04:56:33;96788.59;;;16.67;100.00
70954;BME280;58618;47.490;8.736;2022-08-02T04:59:20;96797.06;;;16.81;100.00
70954;BME280;58618;47.490;8.736;2022-08-02T05:02:08;96803.38;;;16.97;100.00
70954;BME280;58618;47.490;8.736;2022-08-02T05:04:55;96801.53;;;17.06;100.00
70954;BME280;58618;47.490;8.736;2022-08-02T05:07:42;96799.69;;;17.15;100.00
70954;BME280;58618;47.490;8.736;2022-08-02T05:10:31;96794.47;;;17.33;100.00
70954;BME280;58618;47.490;8.736;2022-08-02T05:13:19;96789.25;;;17.50;100.00
70954;BME280;58618;47.490;8.736;2022-08-02T05:16:06;96782.16;;;17.50;100.00
70954;BME280;58618;47.490;8.736;2022-08-02T05:18:54;96791.72;;;17.55;100.00
70954;BME280;58618;47.490;8.736;2022-08-02T05:21:41;96791.06;;;17.75;100.00
70954;BME280;58618;47.490;8.736;2022-08-02T05:24:28;96794.09;;;17.94;100.00
70954;BME280;58618;47.490;8.736;2022-08-02T05:27:17;96785.59;;;18.06;100.00
70954;BME280;58618;47.490;8.736;2022-08-02T05:30:05;96791.25;;;18.17;100.00
70954;BME280;58618;47.490;8.736;2022-08-02T05:32:52;96786.09;;;18.37;100.00
70954;BME280;58618;47.490;8.736;2022-08-02T05:35:40;96792.91;;;18.59;100.00
70954;BME280;58618;47.490;8.736;2022-08-02T05:38:27;96787.22;;;18.28;100.00
70954;BME280;58618;47.490;8.736;2022-08-02T05:41:17;96795.56;;;18.12;100.00
70954;BME280;58618;47.490;8.736;2022-08-02T05:44:06;96808.44;;;18.18;100.00
70954;BME280;58618;47.490;8.736;2022-08-02T05:46:53;96805.44;;;18.36;100.00
70954;BME280;58618;47.490;8.736;2022-08-02T05:49:41;96788.34;;;18.18;99.54
70954;BME280;58618;47.490;8.736;2022-08-02T05:52:39;96795.34;;;18.26;99.35
70954;BME280;58618;47.490;8.736;2022-08-02T05:55:32;96811.91;;;18.39;100.00
70954;BME280;58618;47.490;8.736;2022-08-02T05:58:31;96805.69;;;18.52;100.00
70954;BME280;58618;47.490;8.736;2022-08-02T06:01:27;96811.16;;;18.68;98.42
70954;BME280;58618;47.490;8.736;2022-08-02T06:04:18;96803.97;;;18.85;100.00
70954;BME280;58618;47.490;8.736;2022-08-02T06:07:08;96807.38;;;19.07;98.38
70954;BME280;58618;47.490;8.736;2022-08-02T06:09:57;96813.75;;;19.18;95.86
70954;BME280;58618;47.490;8.736;2022-08-02T06:12:47;96817.00;;;19.15;96.56
70954;BME280;58618;47.490;8.736;2022-08-02T06:15:36;96810.31;;;19.47;93.62
70954;BME280;58618;47.490;8.736;2022-08-02T06:18:26;96810.81;;;19.19;93.69
70954;BME280;58618;47.490;8.736;2022-08-02T06:21:14;96814.91;;;19.50;92.74
70954;BME280;58618;47.490;8.736;2022-08-02T06:24:02;96811.47;;;20.03;92.95
70954;BME280;58618;47.490;8.736;2022-08-02T06:26:49;96802.53;;;20.64;87.87
70954;BME280;58618;47.490;8.736;2022-08-02T06:29:41;96798.78;;;21.85;81.96
70954;BME280;58618;47.490;8.736;2022-08-02T06:32:32;96801.81;;;23.55;75.25
70954;BME280;58618;47.490;8.736;2022-08-02T06:35:23;96803.59;;;23.32;73.04
70954;BME280;58618;47.490;8.736;2022-08-02T06:38:17;96811.50;;;23.51;74.17
70954;BME280;58618;47.490;8.736;2022-08-02T06:41:07;96798.75;;;23.53;73.12
70954;BME280;58618;47.490;8.736;2022-08-02T06:43:59;96812.47;;;23.24;74.31
70954;BME280;58618;47.490;8.736;2022-08-02T06:46:47;96806.78;;;24.25;70.50
70954;BME280;58618;47.490;8.736;2022-08-02T06:49:35;96812.28;;;25.51;66.29
70954;BME280;58618;47.490;8.736;2022-08-02T06:52:26;96796.47;;;26.39;64.50
70954;BME280;58618;47.490;8.736;2022-08-02T06:55:15;96812.91;;;27.35;60.70
70954;BME280;58618;47.490;8.736;2022-08-02T06:58:03;96809.91;;;27.44;57.97
70954;BME280;58618;47.490;8.736;2022-08-02T07:00:50;96807.03;;;28.30;54.85
70954;BME280;58618;47.490;8.736;2022-08-02T07:03:39;96819.47;;;27.77;56.95
70954;BME280;58618;47.490;8.736;2022-08-02T07:06:27;96801.69;;;28.69;53.92
70954;BME280;58618;47.490;8.736;2022-08-02T07:09:16;96808.84;;;28.93;52.24
70954;BME280;58618;47.490;8.736;2022-08-02T07:12:04;96810.94;;;29.52;51.64
70954;BME280;58618;47.490;8.736;2022-08-02T07:14:51;96820.25;;;29.81;49.15
70954;BME280;58618;47.490;8.736;2022-08-02T07:17:39;96816.47;;;29.78;49.00
70954;BME280;58618;47.490;8.736;2022-08-02T07:20:27;96808.84;;;29.08;51.43
70954;BME280;58618;47.490;8.736;2022-08-02T07:23:14;96814.69;;;29.58;49.99
70954;BME280;58618;47.490;8.736;2022-08-02T07:26:03;96805.50;;;28.79;50.84
70954;BME280;58618;47.490;8.736;2022-08-02T07:28:50;96818.72;;;28.96;51.89
70954;BME280;58618;47.490;8.736;2022-08-02T07:31:37;96809.94;;;27.51;53.48
70954;BME280;58618;47.490;8.736;2022-08-02T07:34:25;96824.31;;;29.34;48.96
70954;BME280;58618;47.490;8.736;2022-08-02T07:37:12;96817.41;;;29.47;47.63
70954;BME280;58618;47.490;8.736;2022-08-02T07:39:59;96812.53;;;29.35;48.96
70954;BME280;58618;47.490;8.736;2022-08-02T07:42:49;96809.00;;;30.62;45.40
70954;BME280;58618;47.490;8.736;2022-08-02T07:45:38;96803.75;;;30.55;45.80
70954;BME280;58618;47.490;8.736;2022-08-02T07:48:25;96809.72;;;29.63;48.80
70954;BME280;58618;47.490;8.736;2022-08-02T07:51:12;96810.34;;;29.92;47.59
70954;BME280;58618;47.490;8.736;2022-08-02T07:53:59;96790.25;;;29.01;48.11
70954;BME280;58618;47.490;8.736;2022-08-02T07:56:47;96799.41;;;28.71;52.32
70954;BME280;58618;47.490;8.736;2022-08-02T07:59:35;96802.41;;;30.33;47.32
70954;BME280;58618;47.490;8.736;2022-08-02T08:02:23;96808.75;;;30.02;47.52
70954;BME280;58618;47.490;8.736;2022-08-02T08:05:10;96801.41;;;30.16;46.71
70954;BME280;58618;47.490;8.736;2022-08-02T08:07:58;96800.53;;;30.75;46.17
70954;BME280;58618;47.490;8.736;2022-08-02T08:10:46;96798.28;;;30.70;46.98
70954;BME280;58618;47.490;8.736;2022-08-02T08:13:33;96799.19;;;31.27;44.03
70954;BME280;58618;47.490;8.736;2022-08-02T08:16:22;96798.06;;;30.91;45.94
70954;BME280;58618;47.490;8.736;2022-08-02T08:19:11;96800.28;;;30.96;43.85
70954;BME280;58618;47.490;8.736;2022-08-02T08:21:58;96804.59;;;30.45;44.90
70954;BME280;58618;47.490;8.736;2022-08-02T08:24:46;96807.59;;;30.03;44.50
70954;BME280;58618;47.490;8.736;2022-08-02T08:27:33;96809.34;;;30.20;44.12
70954;BME280;58618;47.490;8.736;2022-08-02T08:30:21;96804.78;;;30.24;46.62
70954;BME280;58618;47.490;8.736;2022-08-02T08:33:10;96792.63;;;28.35;48.10
70954;BME280;58618;47.490;8.736;2022-08-02T08:35:57;96796.28;;;29.12;49.16
70954;BME280;58618;47.490;8.736;2022-08-02T08:38:44;96798.88;;;29.99;47.47
70954;BME280;58618;47.490;8.736;2022-08-02T08:41:31;96801.75;;;30.67;43.55
70954;BME280;58618;47.490;8.736;2022-08-02T08:44:19;96802.25;;;29.44;45.84
70954;BME280;58618;47.490;8.736;2022-08-02T08:47:06;96797.16;;;28.52;48.01
70954;BME280;58618;47.490;8.736;2022-08-02T08:50:00;96788.09;;;28.35;49.70
70954;BME280;58618;47.490;8.736;2022-08-02T08:52:53;96786.53;;;27.70;50.49
70954;BME280;58618;47.490;8.736;2022-08-02T08:55:44;96786.53;;;27.74;51.01
70954;BME280;58618;47.490;8.736;2022-08-02T08:58:31;96795.63;;;28.72;48.00
70954;BME280;58618;47.490;8.736;2022-08-02T09:01:18;96789.13;;;26.70;52.88
70954;BME280;58618;47.490;8.736;2022-08-02T09:04:06;96795.63;;;25.47;55.64
70954;BME280;58618;47.490;8.736;2022-08-02T09:06:55;96793.50;;;26.44;53.52
70954;BME280;58618;47.490;8.736;2022-08-02T09:09:42;96791.53;;;26.89;52.38
70954;BME280;58618;47.490;8.736;2022-08-02T09:12:29;96787.09;;;27.18;51.44
70954;BME280;58618;47.490;8.736;2022-08-02T09:15:23;96792.59;;;27.92;50.14
70954;BME280;58618;47.490;8.736;2022-08-02T09:18:11;96791.50;;;28.25;48.69
70954;BME280;58618;47.490;8.736;2022-08-02T09:21:01;96784.22;;;28.82;48.09
70954;BME280;58618;47.490;8.736;2022-08-02T09:23:51;96788.78;;;28.85;47.28
70954;BME280;58618;47.490;8.736;2022-08-02T09:26:40;96794.13;;;27.79;49.75
70954;BME280;58618;47.490;8.736;2022-08-02T09:29:28;96787.28;;;28.56;48.88
70954;BME280;58618;47.490;8.736;2022-08-02T09:32:15;96780.53;;;28.23;48.16
70954;BME280;58618;47.490;8.736;2022-08-02T09:35:04;96787.28;;;28.77;46.69
70954;BME280;58618;47.490;8.736;2022-08-02T09:37:52;96788.03;;;27.64;48.39
70954;BME280;58618;47.490;8.736;2022-08-02T09:40:55;96779.72;;;27.94;49.65
70954;BME280;58618;47.490;8.736;2022-08-02T09:43:42;96769.09;;;27.59;49.41
70954;BME280;58618;47.490;8.736;2022-08-02T09:46:32;96768.25;;;27.34;50.33
70954;BME280;58618;47.490;8.736;2022-08-02T09:49:21;96773.84;;;26.45;51.87
70954;BME280;58618;47.490;8.736;2022-08-02T09:52:08;96770.78;;;26.36;52.05
70954;BME280;58618;47.490;8.736;2022-08-02T09:55:02;96774.25;;;26.00;54.31
70954;BME280;58618;47.490;8.736;2022-08-02T09:57:51;96764.81;;;26.50;52.98
70954;BME280;58618;47.490;8.736;2022-08-02T10:00:50;96765.47;;;26.36;53.60
70954;BME280;58618;47.490;8.736;2022-08-02T10:03:52;96769.59;;;26.30;52.40
70954;BME280;58618;47.490;8.736;2022-08-02T10:06:41;96755.41;;;25.64;55.34
70954;BME280;58618;47.490;8.736;2022-08-02T10:09:29;96757.03;;;26.20;51.86
70954;BME280;58618;47.490;8.736;2022-08-02T10:12:18;96754.72;;;26.15;53.00
70954;BME280;58618;47.490;8.736;2022-08-02T10:15:08;96755.81;;;25.67;53.46
70954;BME280;58618;47.490;8.736;2022-08-02T10:17:55;96750.09;;;25.57;54.75
70954;BME280;58618;47.490;8.736;2022-08-02T10:20:43;96746.53;;;25.80;53.18
70954;BME280;58618;47.490;8.736;2022-08-02T10:23:33;96732.38;;;25.61;54.62
70954;BME280;58618;47.490;8.736;2022-08-02T10:26:20;96730.91;;;25.27;54.84
70954;BME280;58618;47.490;8.736;2022-08-02T10:29:08;96723.59;;;25.91;54.13
70954;BME280;58618;47.490;8.736;2022-08-02T10:32:00;96723.34;;;26.14;52.39
70954;BME280;58618;47.490;8.736;2022-08-02T10:34:53;96717.69;;;26.12;51.11
70954;BME280;58618;47.490;8.736;2022-08-02T10:37:43;96717.91;;;25.92;53.02
70954;BME280;58618;47.490;8.736;2022-08-02T10:40:45;96713.53;;;25.67;53.80
70954;BME280;58618;47.490;8.736;2022-08-02T10:43:41;96709.13;;;25.78;53.14
70954;BME280;58618;47.490;8.736;2022-08-02T10:46:30;96717.78;;;25.75;55.16
70954;BME280;58618;47.490;8.736;2022-08-02T10:49:21;96712.31;;;26.01;52.73
70954;BME280;58618;47.490;8.736;2022-08-02T10:52:08;96716.16;;;26.11;52.01
70954;BME280;58618;47.490;8.736;2022-08-02T10:54:57;96722.16;;;26.07;54.07
70954;BME280;58618;47.490;8.736;2022-08-02T10:57:44;96716.25;;;26.21;51.25
70954;BME280;58618;47.490;8.736;2022-08-02T11:00:32;96709.78;;;26.15;51.75
70954;BME280;58618;47.490;8.736;2022-08-02T11:03:36;96713.28;;;26.33;52.14
70954;BME280;58618;47.490;8.736;2022-08-02T11:06:26;96712.53;;;26.29;52.06
70954;BME280;58618;47.490;8.736;2022-08-02T11:09:26;96709.50;;;26.27;54.27
70954;BME280;58618;47.490;8.736;2022-08-02T11:12:16;96701.84;;;26.19;52.08
70954;BME280;58618;47.490;8.736;2022-08-02T11:15:04;96702.69;;;26.26;50.93
70954;BME280;58618;47.490;8.736;2022-08-02T11:17:52;96700.06;;;26.30;51.46
70954;BME280;58618;47.490;8.736;2022-08-02T11:20:40;96700.41;;;26.25;52.50
70954;BME280;58618;47.490;8.736;2022-08-02T11:23:36;96701.75;;;26.01;52.50
70954;BME280;58618;47.490;8.736;2022-08-02T11:26:43;96685.13;;;26.00;51.95
70954;BME280;58618;47.490;8.736;2022-08-02T11:29:36;96693.00;;;25.97;52.72
70954;BME280;58618;47.490;8.736;2022-08-02T11:32:24;96692.84;;;26.23;53.79
70954;BME280;58618;47.490;8.736;2022-08-02T11:35:12;96692.13;;;26.26;52.59
70954;BME280;58618;47.490;8.736;2022-08-02T11:38:14;96684.66;;;26.49;52.14
70954;BME280;58618;47.490;8.736;2022-08-02T11:41:03;96677.19;;;26.66;50.09
70954;BME280;58618;47.490;8.736;2022-08-02T11:43:53;96677.22;;;26.76;49.46
70954;BME280;58618;47.490;8.736;2022-08-02T11:46:40;96681.03;;;26.79;48.66
70954;BME280;58618;47.490;8.736;2022-08-02T11:49:28;96674.63;;;26.87;48.38
70954;BME280;58618;47.490;8.736;2022-08-02T11:52:16;96675.06;;;27.00;49.85
70954;BME280;58618;47.490;8.736;2022-08-02T11:55:05;96681.13;;;27.00;47.66
70954;BME280;58618;47.490;8.736;2022-08-02T11:57:58;96679.38;;;26.49;46.66
70954;BME280;58618;47.490;8.736;2022-08-02T12:00:45;96679.38;;;26.49;47.96
70954;BME280;58618;47.490;8.736;2022-08-02T12:03:34;96675.59;;;26.51;49.09
70954;BME280;58618;47.490;8.736;2022-08-02T12:06:21;96676.47;;;26.76;48.07
70954;BME280;58618;47.490;8.736;2022-08-02T12:09:11;96673.00;;;26.58;46.05
70954;BME280;58618;47.490;8.736;2022-08-02T12:12:00;96668.88;;;26.71;47.68
70954;BME280;58618;47.490;8.736;2022-08-02T12:14:48;96665.97;;;26.97;47.11
70954;BME280;58618;47.490;8.736;2022-08-02T12:17:37;96668.28;;;27.23;45.43
70954;BME280;58618;47.490;8.736;2022-08-02T12:20:42;96657.72;;;27.38;45.66
70954;BME280;58618;47.490;8.736;2022-08-02T12:23:30;96664.53;;;27.35;45.20
70954;BME280;58618;47.490;8.736;2022-08-02T12:26:17;96664.53;;;27.17;45.27
70954;BME280;58618;47.490;8.736;2022-08-02T12:29:04;96652.41;;;27.16;47.04
70954;BME280;58618;47.490;8.736;2022-08-02T12:31:53;96664.56;;;27.39;47.86
70954;BME280;58618;47.490;8.736;2022-08-02T12:34:40;96664.53;;;27.42;47.65
70954;BME280;58618;47.490;8.736;2022-08-02T12:37:28;96667.56;;;27.37;44.48
70954;BME280;58618;47.490;8.736;2022-08-02T12:40:20;96660.72;;;27.29;46.39
70954;BME280;58618;47.490;8.736;2022-08-02T12:43:15;96653.94;;;27.28;45.66
70954;BME280;58618;47.490;8.736;2022-08-02T12:46:03;96644.09;;;27.21;45.38
70954;BME280;58618;47.490;8.736;2022-08-02T12:48:52;96652.78;;;27.25;47.37
70954;BME280;58618;47.490;8.736;2022-08-02T12:51:39;96646.34;;;27.16;44.72
70954;BME280;58618;47.490;8.736;2022-08-02T12:54:29;96639.53;;;27.18;45.21
70954;BME280;58618;47.490;8.736;2022-08-02T12:57:18;96640.28;;;27.12;45.72
70954;BME280;58618;47.490;8.736;2022-08-02T13:00:06;96637.66;;;27.22;44.54
70954;BME280;58618;47.490;8.736;2022-08-02T13:02:55;96637.28;;;27.38;44.43
70954;BME280;58618;47.490;8.736;2022-08-02T13:05:43;96628.97;;;27.50;44.22
70954;BME280;58618;47.490;8.736;2022-08-02T13:08:31;96619.13;;;27.61;45.95
70954;BME280;58618;47.490;8.736;2022-08-02T13:11:19;96619.16;;;27.65;45.68
70954;BME280;58618;47.490;8.736;2022-08-02T13:14:06;96617.63;;;27.64;45.26
70954;BME280;58618;47.490;8.736;2022-08-02T13:16:53;96611.56;;;27.60;43.45
70954;BME280;58618;47.490;8.736;2022-08-02T13:19:41;96616.84;;;27.81;44.81
70954;BME280;58618;47.490;8.736;2022-08-02T13:22:30;96616.84;;;27.74;43.10
70954;BME280;58618;47.490;8.736;2022-08-02T13:25:17;96614.97;;;27.75;43.68
70954;BME280;58618;47.490;8.736;2022-08-02T13:28:07;96620.63;;;27.73;42.82
70954;BME280;58618;47.490;8.736;2022-08-02T13:30:55;96619.13;;;27.72;43.70
70954;BME280;58618;47.490;8.736;2022-08-02T13:33:42;96611.19;;;27.44;42.20
70954;BME280;58618;47.490;8.736;2022-08-02T13:36:29;96607.75;;;27.47;42.17
70954;BME280;58618;47.490;8.736;2022-08-02T13:39:18;96610.78;;;27.49;42.26
70954;BME280;58618;47.490;8.736;2022-08-02T13:42:05;96604.72;;;27.73;42.54
70954;BME280;58618;47.490;8.736;2022-08-02T13:44:53;96608.16;;;27.70;41.98
70954;BME280;58618;47.490;8.736;2022-08-02T13:47:41;96610.03;;;27.55;41.10
70954;BME280;58618;47.490;8.736;2022-08-02T13:50:31;96588.84;;;27.52;42.74
70954;BME280;58618;47.490;8.736;2022-08-02T13:53:19;96600.59;;;27.58;41.84
70954;BME280;58618;47.490;8.736;2022-08-02T13:56:07;96597.16;;;27.61;39.80
70954;BME280;58618;47.490;8.736;2022-08-02T13:58:55;96596.03;;;27.72;39.25
70954;BME280;58618;47.490;8.736;2022-08-02T14:01:44;96596.75;;;27.91;40.51
70954;BME280;58618;47.490;8.736;2022-08-02T14:04:31;96597.91;;;27.86;38.96
70954;BME280;58618;47.490;8.736;2022-08-02T14:07:19;96586.91;;;27.84;39.57
70954;BME280;58618;47.490;8.736;2022-08-02T14:10:07;96582.38;;;27.85;39.60
70954;BME280;58618;47.490;8.736;2022-08-02T14:12:55;96591.81;;;27.89;38.43
70954;BME280;58618;47.490;8.736;2022-08-02T14:15:43;96586.53;;;27.89;38.90
70954;BME280;58618;47.490;8.736;2022-08-02T14:18:31;96588.06;;;27.80;38.42
70954;BME280;58618;47.490;8.736;2022-08-02T14:21:18;96578.22;;;27.77;40.45
70954;BME280;58618;47.490;8.736;2022-08-02T14:24:06;96574.41;;;27.78;42.26
70954;BME280;58618;47.490;8.736;2022-08-02T14:26:53;96574.41;;;27.85;39.06
70954;BME280;58618;47.490;8.736;2022-08-02T14:29:41;96571.34;;;27.93;38.28
70954;BME280;58618;47.490;8.736;2022-08-02T14:32:29;96579.69;;;27.88;37.52
70954;BME280;58618;47.490;8.736;2022-08-02T14:35:17;96575.88;;;28.03;36.90
70954;BME280;58618;47.490;8.736;2022-08-02T14:38:04;96569.03;;;28.13;36.75
70954;BME280;58618;47.490;8.736;2022-08-02T14:40:51;96575.09;;;28.10;37.34
70954;BME280;58618;47.490;8.736;2022-08-02T14:43:38;96577.38;;;28.08;36.83
70954;BME280;58618;47.490;8.736;2022-08-02T14:46:45;96583.84;;;28.00;36.86
70954;BME280;58618;47.490;8.736;2022-08-02T14:49:32;96584.59;;;28.07;37.23
70954;BME280;58618;47.490;8.736;2022-08-02T14:52:19;96569.81;;;27.99;37.98